createdAt,value
2023-03-22T00:00:00.817Z,59.80
2023-03-22T00:03:48.071Z,60.30
2023-03-22T00:07:15.274Z,58.80
2023-03-22T00:10:42.896Z,61.00
2023-03-22T00:14:10.026Z,71.10
2023-03-22T00:17:38.590Z,64.00
2023-03-22T00:21:06.056Z,65.50
2023-03-22T00:24:33.456Z,63.00
2023-03-22T00:28:04.127Z,65.90
2023-03-22T00:31:31.284Z,67.20
2023-03-22T00:34:58.625Z,61.70
2023-03-22T00:38:42.049Z,68.10
2023-03-22T00:42:10.117Z,66.00
2023-03-22T00:45:38.355Z,67.20
2023-03-22T00:49:06.327Z,65.90
2023-03-22T00:52:33.541Z,59.50
2023-03-22T00:56:01.059Z,64.70
2023-03-22T00:59:39.712Z,68.80
2023-03-22T01:03:07.182Z,68.00
2023-03-22T01:06:34.915Z,71.40
2023-03-22T01:10:02.746Z,78.90
2023-03-22T01:13:30.050Z,75.90
2023-03-22T01:16:58.585Z,72.60
2023-03-22T01:20:28.785Z,68.70
2023-03-22T01:23:56.379Z,80.80
2023-03-22T01:27:23.449Z,70.30
2023-03-22T01:30:51.397Z,85.00
2023-03-22T01:34:19.144Z,76.00
2023-03-22T01:37:49.209Z,66.50
2023-03-22T01:41:19.343Z,69.80
2023-03-22T01:45:01.529Z,69.20
2023-03-22T01:48:34.851Z,74.80
2023-03-22T01:52:06.670Z,68.80
2023-03-22T01:55:46.947Z,64.20
2023-03-22T01:59:18.665Z,64.90
2023-03-22T02:03:07.800Z,65.00
2023-03-22T02:06:41.205Z,67.70
2023-03-22T02:10:16.890Z,69.70
2023-03-22T02:14:17.208Z,70.20
2023-03-22T02:18:23.145Z,70.50
2023-03-22T02:22:39.169Z,75.30
2023-03-22T02:26:47.397Z,70.10
2023-03-22T02:30:48.524Z,74.60
2023-03-22T02:35:10.401Z,73.00
2023-03-22T02:39:09.866Z,73.40
2023-03-22T02:42:54.643Z,73.90
2023-03-22T02:46:28.595Z,68.30
2023-03-22T02:50:04.461Z,68.40
2023-03-22T02:53:38.434Z,70.80
2023-03-22T02:57:10.140Z,74.40
2023-03-22T03:00:42.881Z,66.10
2023-03-22T03:04:14.627Z,62.80
2023-03-22T03:07:45.775Z,68.30
2023-03-22T03:11:13.893Z,66.10
2023-03-22T03:14:41.217Z,65.00
2023-03-22T03:18:20.175Z,71.30
2023-03-22T03:21:55.618Z,69.30
2023-03-22T03:25:32.985Z,72.20
2023-03-22T03:29:06.338Z,67.90
2023-03-22T03:32:42.261Z,72.40
2023-03-22T03:36:13.630Z,70.30
2023-03-22T03:39:46.228Z,76.90
2023-03-22T03:43:14.652Z,73.80
2023-03-22T03:46:43.268Z,73.30
2023-03-22T03:50:13.008Z,72.30
2023-03-22T03:53:47.530Z,74.10
2023-03-22T03:57:16.942Z,68.00
2023-03-22T04:00:46.809Z,70.00
2023-03-22T04:04:26.943Z,72.20
2023-03-22T04:08:12.610Z,69.10
2023-03-22T04:11:40.632Z,68.80
2023-03-22T04:15:09.340Z,72.20
2023-03-22T04:18:36.140Z,70.30
2023-03-22T04:22:05.724Z,71.40
2023-03-22T04:25:34.755Z,70.60
2023-03-22T04:29:06.699Z,71.50
2023-03-22T04:32:34.436Z,76.50
2023-03-22T04:36:04.418Z,74.60
2023-03-22T04:39:36.894Z,78.10
2023-03-22T04:43:26.462Z,81.70
2023-03-22T04:47:00.119Z,80.60
2023-03-22T04:50:28.359Z,85.10
2023-03-22T04:53:59.106Z,83.10
2023-03-22T04:57:27.812Z,76.40
2023-03-22T05:00:57.009Z,82.20
2023-03-22T05:04:24.635Z,83.20
2023-03-22T05:07:56.735Z,80.10
2023-03-22T05:11:27.914Z,78.60
2023-03-22T05:15:14.414Z,79.50
2023-03-22T05:18:45.638Z,77.70
2023-03-22T05:22:14.253Z,82.60
2023-03-22T05:25:45.404Z,75.60
2023-03-22T05:29:15.782Z,74.00
2023-03-22T05:33:03.471Z,75.70
2023-03-22T05:36:37.099Z,77.90
2023-03-22T05:40:25.645Z,74.90
2023-03-22T05:43:52.707Z,74.50
2023-03-22T05:47:19.956Z,75.10
2023-03-22T05:51:13.546Z,84.00
2023-03-22T05:54:41.233Z,82.00
2023-03-22T05:58:08.779Z,80.20
2023-03-22T06:01:37.410Z,75.80
2023-03-22T06:05:14.600Z,77.90
2023-03-22T06:08:41.672Z,77.00
2023-03-22T06:12:09.443Z,78.50
2023-03-22T06:15:36.468Z,89.00
2023-03-22T06:19:08.316Z,83.80
2023-03-22T06:22:36.422Z,87.20
2023-03-22T06:26:03.677Z,84.40
2023-03-22T06:29:31.462Z,86.90
2023-03-22T06:33:01.131Z,82.60
2023-03-22T06:36:31.003Z,84.80
2023-03-22T06:40:11.096Z,77.00
2023-03-22T06:43:38.189Z,80.50
2023-03-22T06:47:29.261Z,81.30
2023-03-22T06:51:16.616Z,73.40
2023-03-22T06:54:46.106Z,78.20
2023-03-22T06:58:13.267Z,75.30
2023-03-22T07:01:40.129Z,80.30
2023-03-22T07:05:09.422Z,74.80
2023-03-22T07:08:37.615Z,74.60
2023-03-22T07:12:05.452Z,71.40
2023-03-22T07:15:34.885Z,73.60
2023-03-22T07:19:12.314Z,71.70
2023-03-22T07:22:39.556Z,66.90
2023-03-22T07:26:07.322Z,67.40
2023-03-22T07:29:37.081Z,68.00
2023-03-22T07:33:07.595Z,57.50
2023-03-22T07:36:35.343Z,63.70
2023-03-22T07:40:04.552Z,63.90
2023-03-22T07:43:44.151Z,63.90
2023-03-22T07:47:39.649Z,64.10
2023-03-22T07:51:28.534Z,71.20
2023-03-22T07:54:58.448Z,55.60
2023-03-22T07:58:26.850Z,62.70
2023-03-22T08:01:57.287Z,64.20
2023-03-22T08:05:30.731Z,62.70
2023-03-22T08:09:04.587Z,59.30
2023-03-22T08:12:32.837Z,59.80
2023-03-22T08:16:08.647Z,53.60
2023-03-22T08:19:36.318Z,55.70
2023-03-22T08:23:04.452Z,61.60
2023-03-22T08:27:04.075Z,56.40
2023-03-22T08:30:41.033Z,60.80
2023-03-22T08:34:13.026Z,64.60
2023-03-22T08:37:40.430Z,54.90
2023-03-22T08:41:09.683Z,67.90
2023-03-22T08:44:38.402Z,58.80
2023-03-22T08:48:09.090Z,57.50
2023-03-22T08:51:53.213Z,55.50
2023-03-22T08:56:01.920Z,51.70
2023-03-22T08:59:42.098Z,55.50
2023-03-22T09:03:23.412Z,54.00
2023-03-22T09:06:50.413Z,53.20
2023-03-22T09:10:17.435Z,49.90
2023-03-22T09:13:46.066Z,46.50
2023-03-22T09:17:13.162Z,47.60
2023-03-22T09:20:40.412Z,51.40
2023-03-22T09:24:09.420Z,46.00
2023-03-22T09:27:43.803Z,45.90
2023-03-22T09:31:12.130Z,44.10
2023-03-22T09:34:40.936Z,41.40
2023-03-22T09:38:08.907Z,39.70
2023-03-22T09:41:41.130Z,47.50
2023-03-22T09:45:15.178Z,40.30
2023-03-22T09:52:15.179Z,40.30
2023-03-22T09:55:46.929Z,43.60
2023-03-22T09:59:18.985Z,44.90
2023-03-22T10:02:55.862Z,41.90
2023-03-22T10:06:26.088Z,39.40
2023-03-22T10:10:06.947Z,41.40
2023-03-22T10:13:40.830Z,39.10
2023-03-22T10:17:12.050Z,38.10
2023-03-22T10:20:45.971Z,33.50
2023-03-22T10:24:18.113Z,36.80
2023-03-22T10:27:50.877Z,35.20
2023-03-22T10:31:21.634Z,36.50
2023-03-22T10:34:49.655Z,38.30
2023-03-22T10:38:24.544Z,40.00
2023-03-22T10:41:55.387Z,38.20
2023-03-22T10:45:25.611Z,38.20
2023-03-22T10:48:57.535Z,37.20
2023-03-22T10:52:38.031Z,35.40
2023-03-22T10:56:05.183Z,34.60
2023-03-22T10:59:47.572Z,36.90
2023-03-22T11:03:29.795Z,35.20
2023-03-22T11:06:57.460Z,31.80
2023-03-22T11:10:28.664Z,35.60
2023-03-22T11:14:01.261Z,35.70
2023-03-22T11:17:28.637Z,32.00
2023-03-22T11:21:01.042Z,35.80
2023-03-22T11:24:29.738Z,33.90
2023-03-22T11:27:58.982Z,31.60
2023-03-22T11:31:26.250Z,34.20
2023-03-22T11:35:03.549Z,33.00
2023-03-22T11:38:37.572Z,36.80
2023-03-22T11:42:07.538Z,34.00
2023-03-22T11:45:39.260Z,33.20
2023-03-22T11:49:16.303Z,35.00
2023-03-22T11:52:48.673Z,32.60
2023-03-22T11:56:20.218Z,30.30
2023-03-22T11:59:55.574Z,27.00
2023-03-22T12:03:27.661Z,29.50
2023-03-22T12:06:58.137Z,26.20
2023-03-22T12:10:31.334Z,26.70
2023-03-22T12:14:02.036Z,26.60
2023-03-22T12:17:36.869Z,25.40
2023-03-22T12:21:05.824Z,26.10
2023-03-22T12:24:34.194Z,24.90
2023-03-22T12:28:07.249Z,28.80
2023-03-22T12:31:38.625Z,25.50
2023-03-22T12:35:17.298Z,25.00
2023-03-22T12:38:51.382Z,28.10
2023-03-22T12:42:23.420Z,24.40
2023-03-22T12:45:54.578Z,25.50
2023-03-22T12:49:28.490Z,27.40
2023-03-22T12:52:58.265Z,27.10
2023-03-22T12:56:30.872Z,22.40
2023-03-22T13:00:00.547Z,22.20
2023-03-22T13:03:31.748Z,25.50
2023-03-22T13:07:10.173Z,25.40
2023-03-22T13:11:05.186Z,23.00
2023-03-22T13:15:02.321Z,19.20
2023-03-22T13:19:00.835Z,20.60
2023-03-22T13:22:31.498Z,19.40
2023-03-22T13:26:16.480Z,18.30
2023-03-22T13:29:43.602Z,18.00
2023-03-22T13:33:26.602Z,18.10
2023-03-22T13:40:37.913Z,17.00
2023-03-22T13:44:21.509Z,20.40
2023-03-22T13:48:04.579Z,20.20
2023-03-22T13:51:34.006Z,20.40
2023-03-22T13:55:01.329Z,17.20
2023-03-22T13:58:51.266Z,16.30
2023-03-22T14:02:26.507Z,18.70
2023-03-22T14:06:01.721Z,18.90
2023-03-22T14:09:33.145Z,24.80
2023-03-22T14:13:04.176Z,24.80
2023-03-22T14:16:41.495Z,22.30
2023-03-22T14:20:13.673Z,21.30
